Time;durP1;ratioP1;P1;durP2;ratioP2;P2;SDS_P1;SDS_P2;PMS_P1;PMS_P2;Temp;Humidity;BMP_temperature;BMP_pressure;BME280_temperature;BME280_humidity;BME280_pressure;Samples;Min_cycle;Max_cycle;Signal;HPM_P1;HPM_P2
2022/05/11 00:00:10;;;;;;;7.82;6.43;;;;;;;;;;5052212;28;20075;-79
2022/05/11 00:02:37;;;;;;;8.60;6.78;;;;;;;;;;5053864;28;20496;-77
2022/05/11 00:05:06;;;;;;;8.07;6.72;;;;;;;;;;5053998;28;20425;-77
2022/05/11 00:07:32;;;;;;;8.55;6.32;;;;;;;;;;5036154;28;20028;-76
2022/05/11 00:09:57;;;;;;;9.02;6.60;;;;;;;;;;5054072;28;20029;-77
2022/05/11 00:12:23;;;;;;;6.90;6.20;;;;;;;;;;5054296;28;20044;-78
2022/05/11 00:14:49;;;;;;;8.57;6.63;;;;;;;;;;5036351;28;20033;-80
2022/05/11 00:17:15;;;;;;;7.25;6.55;;;;;;;;;;5053930;28;20028;-77
2022/05/11 00:19:40;;;;;;;8.57;6.60;;;;;;;;;;5054073;28;20060;-75
2022/05/11 00:22:08;;;;;;;9.60;6.47;;;;;;;;;;5036385;28;20029;-76
2022/05/11 00:24:35;;;;;;;7.63;6.50;;;;;;;;;;5054613;28;20028;-77
2022/05/11 00:27:02;;;;;;;7.78;6.43;;;;;;;;;;5035213;28;20072;-77
2022/05/11 00:29:27;;;;;;;7.80;6.43;;;;;;;;;;5035782;28;20397;-81
2022/05/11 00:31:54;;;;;;;9.35;6.88;;;;;;;;;;5053563;28;20029;-78
2022/05/11 00:34:19;;;;;;;12.07;6.60;;;;;;;;;;5035525;28;20568;-78
2022/05/11 00:36:45;;;;;;;7.93;6.10;;;;;;;;;;5053625;28;20102;-78
2022/05/11 00:39:11;;;;;;;9.40;6.70;;;;;;;;;;5035767;28;20033;-78
2022/05/11 00:41:42;;;;;;;8.88;5.78;;;;;;;;;;5054381;28;20032;-77
2022/05/11 00:44:09;;;;;;;;;;;;;;;;;;5035818;28;20102;-78
2022/05/11 00:47:04;;;;;;;8.68;6.82;;;;;;;;;;5051638;28;20276;-77
2022/05/11 00:49:43;;;;;;;52.95;25.40;;;;;;;;;;5033543;28;20029;-78
2022/05/11 00:52:38;;;;;;;8.65;6.85;;;;;;;;;;5035503;28;20469;-77
2022/05/11 00:55:11;;;;;;;9.15;6.63;;;;;;;;;;5030004;28;20037;-76
2022/05/11 00:57:57;;;;;;;7.97;7.10;;;;;;;;;;5051667;28;20117;-78
2022/05/11 01:00:24;;;;;;;7.63;6.35;;;;;;;;;;5053201;28;20040;-78
2022/05/11 01:02:55;;;;;;;8.60;6.43;;;;;;;;;;5052132;28;20032;-77
2022/05/11 01:05:22;;;;;;;7.18;6.47;;;;;;;;;;5052602;28;20424;-78
2022/05/11 01:07:49;;;;;;;7.00;6.32;;;;;;;;;;5051608;28;20021;-78
2022/05/11 01:10:14;;;;;;;7.05;6.35;;;;;;;;;;5051283;28;20017;-77
2022/05/11 01:12:47;;;;;;;8.85;6.55;;;;;;;;;;5034864;28;20060;-77
2022/05/11 01:15:14;;;;;;;6.57;5.88;;;;;;;;;;5050688;28;20032;-77
2022/05/11 01:17:40;;;;;;;7.53;6.30;;;;;;;;;;5051818;28;20025;-78
2022/05/11 01:20:09;;;;;;;9.65;6.88;;;;;;;;;;5051403;28;20604;-77
2022/05/11 01:22:53;;;;;;;13.25;6.90;;;;;;;;;;5052418;28;20020;-77
2022/05/11 01:25:20;;;;;;;8.98;6.70;;;;;;;;;;5033768;28;20060;-77
2022/05/11 01:27:47;;;;;;;10.43;6.25;;;;;;;;;;5034374;28;20131;-79
2022/05/11 01:30:22;;;;;;;12.45;6.10;;;;;;;;;;5034348;28;20035;-77
2022/05/11 01:32:50;;;;;;;8.35;6.22;;;;;;;;;;5051811;28;20464;-78
2022/05/11 01:35:34;;;;;;;7.90;6.60;;;;;;;;;;5052039;28;20427;-79
2022/05/11 01:38:14;;;;;;;6.28;5.68;;;;;;;;;;5034969;28;20033;-79
2022/05/11 01:40:40;;;;;;;9.05;6.70;;;;;;;;;;5051417;28;20043;-78
2022/05/11 01:43:06;;;;;;;7.25;6.55;;;;;;;;;;5052636;28;20025;-77
2022/05/11 01:45:32;;;;;;;8.02;6.97;;;;;;;;;;5052353;28;20032;-78
2022/05/11 01:47:57;;;;;;;10.13;6.95;;;;;;;;;;5052698;28;20029;-76
2022/05/11 01:50:25;;;;;;;11.75;6.53;;;;;;;;;;5052537;28;20017;-77
2022/05/11 01:52:51;;;;;;;8.30;6.68;;;;;;;;;;5051222;28;20393;-78
2022/05/11 01:55:19;;;;;;;9.60;6.80;;;;;;;;;;5034612;28;20029;-78
2022/05/11 01:57:45;;;;;;;9.73;6.82;;;;;;;;;;5052382;28;20120;-78
2022/05/11 02:00:11;;;;;;;8.15;6.75;;;;;;;;;;5052113;28;20100;-79
2022/05/11 02:02:37;;;;;;;7.88;7.07;;;;;;;;;;5033947;28;20021;-77
2022/05/11 02:07:51;;;;;;;8.68;6.75;;;;;;;;;;5052300;28;20052;-77
2022/05/11 02:10:24;;;;;;;11.98;7.00;;;;;;;;;;5052295;28;20025;-76
2022/05/11 02:12:50;;;;;;;8.55;6.85;;;;;;;;;;5052062;28;20159;-77
2022/05/11 02:15:18;;;;;;;8.70;7.13;;;;;;;;;;5052067;28;20025;-76
2022/05/11 02:17:45;;;;;;;8.00;7.18;;;;;;;;;;5033816;28;20471;-76
2022/05/11 02:20:13;;;;;;;10.00;6.78;;;;;;;;;;5053463;28;20040;-77
2022/05/11 02:22:40;;;;;;;10.13;7.15;;;;;;;;;;5056339;28;20507;-78
2022/05/11 02:25:06;;;;;;;9.13;7.18;;;;;;;;;;5055831;28;20028;-78
2022/05/11 02:27:32;;;;;;;7.97;6.88;;;;;;;;;;5055069;28;20199;-77
2022/05/11 02:29:58;;;;;;;11.90;7.32;;;;;;;;;;5053982;28;20021;-77
2022/05/11 02:32:24;;;;;;;8.68;7.80;;;;;;;;;;5054034;28;20031;-78
2022/05/11 02:37:34;;;;;;;9.68;7.32;;;;;;;;;;5055408;28;20515;-76
2022/05/11 02:40:00;;;;;;;7.82;7.00;;;;;;;;;;5055697;28;20028;-78
2022/05/11 02:42:26;;;;;;;9.73;7.03;;;;;;;;;;5037757;28;20124;-77
2022/05/11 02:44:53;;;;;;;10.20;7.10;;;;;;;;;;5056277;28;20052;-78
2022/05/11 02:47:18;;;;;;;8.68;7.40;;;;;;;;;;5037593;28;20028;-78
2022/05/11 02:49:46;;;;;;;13.90;8.23;;;;;;;;;;5055325;28;20064;-78
2022/05/11 02:52:14;;;;;;;9.43;7.20;;;;;;;;;;5053910;28;20028;-77
2022/05/11 02:54:43;;;;;;;8.30;7.50;;;;;;;;;;5053988;28;20017;-79
2022/05/11 02:57:10;;;;;;;9.75;7.70;;;;;;;;;;5055800;28;20024;-79
2022/05/11 02:59:36;;;;;;;8.27;7.35;;;;;;;;;;5055257;28;20040;-78
2022/05/11 03:02:01;;;;;;;11.18;7.47;;;;;;;;;;5037252;28;20025;-77
2022/05/11 03:04:27;;;;;;;11.43;7.40;;;;;;;;;;5054946;28;20583;-77
2022/05/11 03:06:52;;;;;;;8.98;7.88;;;;;;;;;;5055610;28;20032;-78
2022/05/11 03:09:18;;;;;;;10.55;7.75;;;;;;;;;;5054617;28;20093;-78
2022/05/11 03:11:45;;;;;;;8.52;7.28;;;;;;;;;;5053532;28;20098;-78
2022/05/11 03:14:14;;;;;;;8.15;6.97;;;;;;;;;;5053314;28;20036;-78
2022/05/11 03:16:39;;;;;;;24.98;9.40;;;;;;;;;;5053834;28;20025;-78
2022/05/11 03:19:05;;;;;;;9.13;7.40;;;;;;;;;;5054913;28;20496;-77
2022/05/11 03:21:32;;;;;;;13.93;8.40;;;;;;;;;;5035624;28;20056;-76
2022/05/11 03:23:58;;;;;;;11.88;8.60;;;;;;;;;;5055046;28;20036;-77
2022/05/11 03:26:24;;;;;;;10.38;7.57;;;;;;;;;;5054817;28;20036;-77
2022/05/11 03:28:50;;;;;;;11.43;8.27;;;;;;;;;;5054851;28;20024;-76
2022/05/11 03:31:16;;;;;;;10.77;7.85;;;;;;;;;;5051267;28;20083;-77
2022/05/11 03:36:26;;;;;;;9.77;8.48;;;;;;;;;;5054025;28;20456;-80
2022/05/11 03:38:53;;;;;;;10.13;8.23;;;;;;;;;;5036277;28;20025;-77
2022/05/11 03:41:18;;;;;;;10.43;8.23;;;;;;;;;;5054394;28;20392;-78
2022/05/11 03:43:44;;;;;;;9.23;7.72;;;;;;;;;;5053177;28;20021;-76
2022/05/11 03:46:10;;;;;;;11.68;8.90;;;;;;;;;;5036853;28;20025;-76
2022/05/11 03:48:37;;;;;;;9.90;8.25;;;;;;;;;;5053247;28;20044;-75
2022/05/11 03:51:04;;;;;;;12.07;8.15;;;;;;;;;;5036659;28;20029;-77
2022/05/11 03:53:31;;;;;;;10.45;8.18;;;;;;;;;;5053433;28;20036;-77
2022/05/11 03:55:56;;;;;;;9.00;7.90;;;;;;;;;;5053362;28;20043;-78
2022/05/11 03:58:22;;;;;;;9.32;8.10;;;;;;;;;;5052654;28;20112;-79
2022/05/11 04:00:48;;;;;;;10.88;7.93;;;;;;;;;;5035974;28;20029;-79
2022/05/11 04:03:13;;;;;;;8.65;7.72;;;;;;;;;;5054174;28;20059;-79
2022/05/11 04:05:39;;;;;;;11.00;7.38;;;;;;;;;;5054053;28;20040;-78
2022/05/11 04:08:05;;;;;;;15.68;7.90;;;;;;;;;;5054361;28;20024;-78
2022/05/11 04:10:32;;;;;;;14.43;8.60;;;;;;;;;;5052426;28;20465;-79
2022/05/11 04:13:00;;;;;;;12.05;8.70;;;;;;;;;;5053210;28;20029;-78
2022/05/11 04:15:26;;;;;;;11.60;8.45;;;;;;;;;;5054579;28;20031;-79
2022/05/11 04:17:51;;;;;;;10.48;7.63;;;;;;;;;;5053975;28;20025;-78
2022/05/11 04:20:19;;;;;;;9.05;7.90;;;;;;;;;;5052775;28;20111;-77
2022/05/11 04:22:45;;;;;;;9.63;8.10;;;;;;;;;;5052500;28;20397;-78
2022/05/11 04:25:15;;;;;;;10.95;8.10;;;;;;;;;;5052996;28;20025;-79
2022/05/11 04:27:45;;;;;;;9.98;7.85;;;;;;;;;;5035989;28;20044;-78
2022/05/11 04:30:12;;;;;;;12.80;8.52;;;;;;;;;;5035817;28;20086;-78
2022/05/11 04:32:38;;;;;;;10.10;7.95;;;;;;;;;;5052245;28;20072;-77
2022/05/11 04:35:05;;;;;;;11.40;8.90;;;;;;;;;;5035317;28;20057;-77
2022/05/11 04:37:30;;;;;;;8.68;7.78;;;;;;;;;;5051917;28;20041;-79
2022/05/11 04:39:56;;;;;;;13.15;8.57;;;;;;;;;;5036269;28;20079;-76
2022/05/11 04:42:22;;;;;;;17.17;13.20;;;;;;;;;;5052737;28;20029;-78
2022/05/11 04:44:48;;;;;;;12.52;8.23;;;;;;;;;;5036179;28;20112;-79
2022/05/11 04:47:16;;;;;;;12.55;8.43;;;;;;;;;;5035755;28;20056;-78
2022/05/11 04:49:42;;;;;;;9.63;8.15;;;;;;;;;;5052101;28;20088;-75
2022/05/11 04:52:13;;;;;;;15.80;8.90;;;;;;;;;;5051998;28;20416;-78
2022/05/11 04:54:41;;;;;;;13.38;8.68;;;;;;;;;;5051994;28;20021;-77
2022/05/11 04:57:08;;;;;;;17.50;8.60;;;;;;;;;;5034481;28;20072;-77
2022/05/11 04:59:34;;;;;;;12.50;8.80;;;;;;;;;;5050764;28;20032;-76
2022/05/11 05:02:01;;;;;;;14.68;8.20;;;;;;;;;;5051145;28;20021;-76
2022/05/11 05:05:05;;;;;;;11.52;7.68;;;;;;;;;;5051334;28;20109;-79
2022/05/11 05:07:31;;;;;;;10.13;7.30;;;;;;;;;;5052704;28;20021;-77
2022/05/11 05:09:56;;;;;;;10.77;8.27;;;;;;;;;;5050683;28;20504;-79
2022/05/11 05:12:24;;;;;;;12.90;7.55;;;;;;;;;;5052861;28;20029;-77
2022/05/11 05:14:49;;;;;;;9.43;6.90;;;;;;;;;;5051082;28;20029;-77
2022/05/11 05:17:15;;;;;;;10.48;7.70;;;;;;;;;;5052591;28;20052;-78
2022/05/11 05:19:43;;;;;;;10.15;7.45;;;;;;;;;;5034104;28;20021;-78
2022/05/11 05:22:10;;;;;;;9.52;7.43;;;;;;;;;;5051430;28;20448;-77
2022/05/11 05:24:35;;;;;;;24.77;9.30;;;;;;;;;;5048606;28;20032;-80
2022/05/11 05:27:03;;;;;;;10.50;7.03;;;;;;;;;;5046152;28;20080;-80
2022/05/11 05:32:15;;;;;;;9.73;7.35;;;;;;;;;;5047514;28;20163;-79
2022/05/11 05:34:43;;;;;;;10.55;7.50;;;;;;;;;;5033733;28;20029;-80
2022/05/11 05:37:11;;;;;;;13.60;8.02;;;;;;;;;;5052775;28;20130;-79
2022/05/11 05:39:49;;;;;;;11.02;7.32;;;;;;;;;;5051656;28;20106;-80
2022/05/11 05:42:23;;;;;;;11.80;7.38;;;;;;;;;;5028994;28;20029;-80
2022/05/11 05:45:00;;;;;;;10.45;7.57;;;;;;;;;;5034902;28;20029;-85
2022/05/11 05:47:27;;;;;;;10.43;8.02;;;;;;;;;;5039001;28;20340;-82
2022/05/11 05:49:53;;;;;;;9.90;7.03;;;;;;;;;;5048846;28;20199;-79
2022/05/11 05:52:22;;;;;;;11.10;7.78;;;;;;;;;;5051253;28;20163;-81
2022/05/11 05:54:55;;;;;;;8.85;7.28;;;;;;;;;;5051021;28;20048;-80
2022/05/11 05:57:20;;;;;;;12.70;7.25;;;;;;;;;;5052091;28;20845;-81
2022/05/11 05:59:49;;;;;;;8.98;6.65;;;;;;;;;;5032046;28;20037;-81
2022/05/11 06:02:16;;;;;;;11.43;7.55;;;;;;;;;;5016339;28;20388;-81
2022/05/11 06:04:54;;;;;;;12.80;7.13;;;;;;;;;;5045716;28;20059;-82
2022/05/11 06:07:21;;;;;;;11.95;7.72;;;;;;;;;;5034592;28;20021;-81
2022/05/11 06:09:47;;;;;;;15.10;7.55;;;;;;;;;;5047070;28;20025;-84
2022/05/11 06:12:15;;;;;;;7.32;6.57;;;;;;;;;;5044873;28;20036;-81
2022/05/11 06:14:41;;;;;;;23.02;11.52;;;;;;;;;;5045234;28;20064;-81
2022/05/11 06:17:18;;;;;;;10.00;7.82;;;;;;;;;;5043471;28;20523;-80
2022/05/11 06:19:46;;;;;;;15.27;7.88;;;;;;;;;;5025239;28;20098;-82
2022/05/11 06:22:12;;;;;;;10.30;7.53;;;;;;;;;;5041614;28;20444;-84
2022/05/11 06:24:38;;;;;;;12.88;8.23;;;;;;;;;;5041846;28;20031;-81
2022/05/11 06:27:16;;;;;;;9.38;7.03;;;;;;;;;;5042992;28;20021;-82
2022/05/11 06:29:55;;;;;;;8.88;6.90;;;;;;;;;;5045506;28;20413;-82
2022/05/11 06:32:24;;;;;;;13.55;7.43;;;;;;;;;;5044008;28;20441;-81
2022/05/11 06:34:51;;;;;;;10.65;6.55;;;;;;;;;;5042610;28;20033;-81
2022/05/11 06:37:17;;;;;;;9.07;6.95;;;;;;;;;;5020493;28;20053;-83
2022/05/11 06:39:45;;;;;;;14.15;7.90;;;;;;;;;;5042088;28;20032;-81
2022/05/11 06:42:13;;;;;;;7.70;6.90;;;;;;;;;;5041991;28;20091;-81
2022/05/11 06:44:42;;;;;;;11.13;8.25;;;;;;;;;;5043695;28;20494;-83
2022/05/11 06:47:08;;;;;;;14.25;7.57;;;;;;;;;;5044909;28;20073;-79
2022/05/11 06:49:34;;;;;;;8.77;7.88;;;;;;;;;;5041733;28;20033;-80
2022/05/11 06:52:01;;;;;;;10.48;7.05;;;;;;;;;;5045024;28;20067;-81
2022/05/11 06:59:56;;;;;;;14.73;7.03;;;;;;;;;;5043939;28;20151;-78
2022/05/11 07:02:22;;;;;;;17.45;7.75;;;;;;;;;;5044423;28;20029;-82
2022/05/11 07:04:48;;;;;;;11.25;6.97;;;;;;;;;;5031758;28;20048;-80
2022/05/11 07:07:15;;;;;;;22.27;8.50;;;;;;;;;;5035780;28;20056;-80
2022/05/11 07:09:41;;;;;;;10.27;7.43;;;;;;;;;;5047367;28;20036;-77
2022/05/11 07:14:54;;;;;;;8.85;6.13;;;;;;;;;;5045009;28;20759;-80
2022/05/11 07:17:50;;;;;;;13.18;7.03;;;;;;;;;;5034072;28;20097;-80
2022/05/11 07:20:26;;;;;;;16.30;7.43;;;;;;;;;;5029629;28;20135;-81
2022/05/11 07:22:52;;;;;;;10.15;6.75;;;;;;;;;;5046141;28;20025;-82
2022/05/11 07:25:20;;;;;;;10.38;6.18;;;;;;;;;;5030826;28;20492;-80
2022/05/11 07:27:46;;;;;;;21.48;6.97;;;;;;;;;;5013566;28;20029;-84
2022/05/11 07:30:18;;;;;;;10.30;6.63;;;;;;;;;;5049727;28;20040;-79
2022/05/11 07:32:44;;;;;;;8.80;5.65;;;;;;;;;;5048029;28;20037;-81
2022/05/11 07:35:10;;;;;;;11.40;6.00;;;;;;;;;;5045106;28;20151;-82
2022/05/11 07:37:35;;;;;;;5.72;4.90;;;;;;;;;;5046502;28;20075;-81
2022/05/11 07:40:02;;;;;;;6.63;5.13;;;;;;;;;;5047620;28;20020;-79
2022/05/11 07:42:28;;;;;;;9.23;5.68;;;;;;;;;;5049812;28;20025;-82
2022/05/11 07:44:53;;;;;;;9.45;5.47;;;;;;;;;;5045169;28;20563;-82
2022/05/11 07:47:23;;;;;;;23.98;7.32;;;;;;;;;;5044208;28;20059;-80
2022/05/11 07:49:49;;;;;;;6.70;5.40;;;;;;;;;;5033565;28;20734;-82
2022/05/11 07:52:15;;;;;;;7.22;4.93;;;;;;;;;;5047179;28;20131;-83
2022/05/11 07:54:42;;;;;;;8.50;5.07;;;;;;;;;;5030604;28;20024;-82
2022/05/11 08:00:01;;;;;;;8.13;5.80;;;;;;;;;;5050579;28;20559;-83
2022/05/11 08:02:32;;;;;;;9.95;5.53;;;;;;;;;;5046570;28;20044;-82
2022/05/11 08:05:02;;;;;;;6.78;5.38;;;;;;;;;;5047729;28;20037;-81
2022/05/11 08:07:37;;;;;;;8.07;5.00;;;;;;;;;;5048076;28;20035;-82
2022/05/11 08:10:03;;;;;;;10.52;6.03;;;;;;;;;;5049101;28;20029;-82
2022/05/11 08:12:29;;;;;;;8.18;4.82;;;;;;;;;;5048200;28;20045;-80
2022/05/11 08:14:55;;;;;;;11.40;5.65;;;;;;;;;;5046922;28;20542;-79
2022/05/11 08:17:28;;;;;;;8.98;5.28;;;;;;;;;;5042265;28;20040;-80
2022/05/11 08:19:54;;;;;;;5.05;4.38;;;;;;;;;;5050650;28;20029;-80
2022/05/11 08:22:20;;;;;;;7.63;4.35;;;;;;;;;;5047924;28;20041;-83
2022/05/11 08:24:46;;;;;;;8.77;4.95;;;;;;;;;;5048358;28;20440;-82
2022/05/11 08:27:16;;;;;;;7.25;5.45;;;;;;;;;;5046334;28;20545;-83
2022/05/11 08:35:28;;;;;;;11.65;5.70;;;;;;;;;;5023346;28;20044;-81
2022/05/11 08:37:55;;;;;;;7.22;5.30;;;;;;;;;;5045339;28;20048;-80
2022/05/11 08:40:37;;;;;;;7.20;4.97;;;;;;;;;;5045242;28;20657;-79
2022/05/11 08:43:05;;;;;;;5.95;5.15;;;;;;;;;;5046436;28;20098;-80
2022/05/11 08:46:13;;;;;;;11.45;4.95;;;;;;;;;;5035451;28;20472;-82
2022/05/11 08:49:13;;;;;;;6.82;4.93;;;;;;;;;;5025440;28;20043;-82
2022/05/11 08:52:32;;;;;;;7.38;5.75;;;;;;;;;;5011085;28;20032;-81
2022/05/11 08:55:31;;;;;;;9.80;5.05;;;;;;;;;;5046559;28;20032;-84
2022/05/11 08:58:08;;;;;;;8.48;4.88;;;;;;;;;;5045633;28;20327;-80
2022/05/11 09:00:36;;;;;;;5.90;5.30;;;;;;;;;;5045030;28;20107;-84
2022/05/11 09:03:27;;;;;;;7.32;5.05;;;;;;;;;;5044022;28;20070;-82
2022/05/11 09:05:56;;;;;;;12.18;5.28;;;;;;;;;;5025002;28;20472;-82
2022/05/11 09:08:21;;;;;;;5.88;4.80;;;;;;;;;;5040458;28;20112;-82
2022/05/11 09:10:47;;;;;;;10.48;5.30;;;;;;;;;;5046415;28;20104;-82
2022/05/11 09:13:14;;;;;;;6.10;5.18;;;;;;;;;;5046492;28;20088;-82
2022/05/11 09:15:59;;;;;;;5.57;4.80;;;;;;;;;;5041899;28;20086;-85
2022/05/11 09:18:31;;;;;;;6.45;4.82;;;;;;;;;;5025530;28;20037;-85
2022/05/11 09:21:10;;;;;;;6.72;5.38;;;;;;;;;;5047577;28;20028;-83
2022/05/11 09:23:43;;;;;;;5.22;4.38;;;;;;;;;;5045383;28;20457;-80
2022/05/11 09:26:14;;;;;;;6.68;5.22;;;;;;;;;;5040484;28;20556;-81
2022/05/11 09:28:45;;;;;;;11.32;4.90;;;;;;;;;;5040774;28;20427;-82
2022/05/11 09:31:54;;;;;;;7.57;5.10;;;;;;;;;;5046013;28;20057;-80
2022/05/11 09:37:53;;;;;;;8.30;5.05;;;;;;;;;;5046037;28;20357;-84
2022/05/11 09:40:22;;;;;;;5.18;4.68;;;;;;;;;;5046819;28;20500;-84
2022/05/11 09:42:55;;;;;;;6.93;5.18;;;;;;;;;;5035815;28;20029;-79
2022/05/11 09:46:00;;;;;;;16.45;4.93;;;;;;;;;;5047250;28;20229;-80
2022/05/11 09:48:37;;;;;;;9.48;4.95;;;;;;;;;;5043960;28;20060;-79
2022/05/11 09:51:34;;;;;;;7.22;4.80;;;;;;;;;;5028110;28;20060;-83
2022/05/11 10:00:48;;;;;;;6.78;4.93;;;;;;;;;;5038271;28;20049;-81
2022/05/11 10:03:29;;;;;;;8.93;5.00;;;;;;;;;;4906685;29;20071;-80
2022/05/11 10:05:56;;;;;;;13.10;5.30;;;;;;;;;;5048892;28;20615;-80
2022/05/11 10:08:34;;;;;;;7.55;5.03;;;;;;;;;;5042959;28;20099;-81
2022/05/11 10:11:36;;;;;;;5.60;4.72;;;;;;;;;;5044638;28;20079;-80
2022/05/11 10:22:58;;;;;;;6.88;4.72;;;;;;;;;;5046778;28;20086;-79
2022/05/11 10:25:39;;;;;;;9.82;5.47;;;;;;;;;;5047007;28;20122;-81
2022/05/11 10:28:36;;;;;;;7.05;5.00;;;;;;;;;;5048339;28;20048;-81
2022/05/11 10:31:31;;;;;;;7.93;5.05;;;;;;;;;;5049130;28;20029;-81
2022/05/11 10:34:22;;;;;;;10.55;5.40;;;;;;;;;;5046705;28;20033;-80
2022/05/11 10:37:07;;;;;;;9.30;5.20;;;;;;;;;;5044512;28;20481;-82
2022/05/11 10:40:10;;;;;;;11.65;5.57;;;;;;;;;;5047130;28;20033;-81
2022/05/11 10:42:43;;;;;;;9.15;4.57;;;;;;;;;;5049332;28;20065;-80
2022/05/11 10:45:23;;;;;;;7.93;4.78;;;;;;;;;;5035662;28;20132;-80
2022/05/11 10:48:11;;;;;;;7.90;4.93;;;;;;;;;;5054413;28;20033;-79
2022/05/11 10:51:04;;;;;;;9.38;5.13;;;;;;;;;;5054832;28;20021;-81
2022/05/11 10:53:48;;;;;;;6.57;4.93;;;;;;;;;;5055041;28;20283;-81
2022/05/11 10:56:33;;;;;;;13.05;5.05;;;;;;;;;;5039163;28;20039;-83
2022/05/11 10:59:24;;;;;;;7.90;4.68;;;;;;;;;;5040193;28;20437;-82
2022/05/11 11:02:27;;;;;;;12.52;5.03;;;;;;;;;;5053994;28;20464;-81
2022/05/11 11:05:23;;;;;;;5.90;4.55;;;;;;;;;;5038690;28;20115;-85
2022/05/11 11:08:21;;;;;;;9.85;4.43;;;;;;;;;;5044065;28;20033;-85
2022/05/11 11:11:07;;;;;;;10.40;5.07;;;;;;;;;;5051289;28;20128;-84
2022/05/11 11:13:42;;;;;;;15.55;4.93;;;;;;;;;;5053416;28;20052;-82
2022/05/11 11:16:13;;;;;;;9.73;4.65;;;;;;;;;;5050599;28;20035;-81
2022/05/11 11:18:43;;;;;;;4.72;3.97;;;;;;;;;;5050589;28;20068;-81
2022/05/11 11:21:13;;;;;;;12.65;4.82;;;;;;;;;;5051617;28;20094;-82
2022/05/11 11:23:41;;;;;;;;;;;;;;;;;;5033260;28;20403;-82
2022/05/11 11:26:30;;;;;;;7.22;4.25;;;;;;;;;;5049345;28;19913;-81
2022/05/11 11:28:56;;;;;;;6.53;4.80;;;;;;;;;;5049082;28;20033;-80
2022/05/11 11:31:28;;;;;;;5.43;4.57;;;;;;;;;;5050256;28;20097;-81
2022/05/11 11:33:54;;;;;;;5.57;4.45;;;;;;;;;;5032841;28;20055;-83
2022/05/11 11:36:28;;;;;;;7.25;4.45;;;;;;;;;;5045988;28;20045;-81
2022/05/11 11:39:00;;;;;;;5.40;4.32;;;;;;;;;;5048798;28;20221;-81
2022/05/11 11:41:31;;;;;;;8.65;4.13;;;;;;;;;;5046401;28;20469;-81
2022/05/11 11:44:01;;;;;;;;;;;;;;;;;;5047433;28;20032;-80
2022/05/11 11:46:40;;;;;;;6.22;4.25;;;;;;;;;;5049699;28;19975;-82
2022/05/11 11:49:23;;;;;;;7.55;4.30;;;;;;;;;;5049532;28;20024;-83
2022/05/11 11:51:52;;;;;;;8.05;4.95;;;;;;;;;;5051142;28;20032;-81
2022/05/11 11:54:38;;;;;;;7.43;4.72;;;;;;;;;;5048298;28;20045;-81
2022/05/11 11:57:23;;;;;;;9.65;3.92;;;;;;;;;;5047865;28;20086;-84
2022/05/11 11:59:56;;;;;;;5.57;4.25;;;;;;;;;;5050247;28;20048;-83
2022/05/11 12:02:39;;;;;;;4.60;4.20;;;;;;;;;;5049070;28;20020;-81
2022/05/11 12:05:29;;;;;;;6.57;4.32;;;;;;;;;;5038757;28;20048;-80
2022/05/11 12:16:28;;;;;;;4.97;3.95;;;;;;;;;;5051822;28;20044;-80
2022/05/11 12:19:09;;;;;;;7.05;3.67;;;;;;;;;;5047302;28;20033;-79
2022/05/11 12:22:01;;;;;;;;;;;;;;;;;;5047826;28;20477;-82
2022/05/11 12:24:43;;;;;;;5.05;4.03;;;;;;;;;;5042694;28;20345;-83
2022/05/11 12:27:20;;;;;;;5.28;3.78;;;;;;;;;;5051040;28;20017;-82
2022/05/11 12:29:59;;;;;;;7.88;4.15;;;;;;;;;;5049422;28;20105;-81
2022/05/11 12:32:32;;;;;;;6.55;4.03;;;;;;;;;;5048235;28;20609;-81
2022/05/11 12:35:20;;;;;;;5.90;4.18;;;;;;;;;;5046978;28;20047;-81
2022/05/11 12:37:58;;;;;;;8.77;4.40;;;;;;;;;;5050991;28;20041;-85
2022/05/11 12:40:35;;;;;;;5.35;4.10;;;;;;;;;;5049228;28;20126;-81
2022/05/11 12:43:09;;;;;;;11.60;4.28;;;;;;;;;;5052371;28;20388;-80
2022/05/11 12:45:46;;;;;;;5.75;3.58;;;;;;;;;;5049782;28;20124;-83
2022/05/11 12:48:22;;;;;;;5.82;4.05;;;;;;;;;;5048225;28;20570;-82
2022/05/11 12:51:00;;;;;;;5.65;3.97;;;;;;;;;;5051275;28;20013;-83
2022/05/11 12:53:29;;;;;;;10.55;4.82;;;;;;;;;;5048127;28;20059;-82
2022/05/11 12:56:12;;;;;;;4.25;3.72;;;;;;;;;;5041594;28;20047;-83
2022/05/11 12:58:50;;;;;;;7.63;4.30;;;;;;;;;;5048403;28;20029;-82
2022/05/11 13:01:22;;;;;;;8.48;4.43;;;;;;;;;;5052019;28;20388;-84
2022/05/11 13:03:50;;;;;;;3.92;3.58;;;;;;;;;;5051333;28;20021;-83
2022/05/11 13:06:26;;;;;;;6.55;4.07;;;;;;;;;;5036478;28;20035;-80
2022/05/11 13:08:57;;;;;;;6.28;3.45;;;;;;;;;;5057142;28;20046;-82
2022/05/11 13:11:30;;;;;;;6.75;4.40;;;;;;;;;;5036930;28;20120;-81
2022/05/11 13:14:08;;;;;;;;;;;;;;;;;;;;;
2022/05/11 13:16:34;;;;;;;4.30;3.78;;;;;;;;;;5053938;28;20031;-83
2022/05/11 13:19:31;;;;;;;5.22;4.18;;;;;;;;;;5035136;28;20063;-81
2022/05/11 13:22:00;;;;;;;5.63;4.03;;;;;;;;;;5048073;28;20048;-82
2022/05/11 13:24:42;;;;;;;6.07;4.45;;;;;;;;;;5044203;28;20025;-81
2022/05/11 13:27:33;;;;;;;4.07;3.75;;;;;;;;;;5051384;28;20051;-79
2022/05/11 13:30:32;;;;;;;4.55;3.85;;;;;;;;;;5053226;28;20070;-80
2022/05/11 13:33:04;;;;;;;6.00;3.30;;;;;;;;;;5034488;28;20029;-80
2022/05/11 13:35:35;;;;;;;4.07;3.53;;;;;;;;;;5035427;28;20037;-78
2022/05/11 13:38:10;;;;;;;3.65;3.05;;;;;;;;;;5051643;28;20090;-84
2022/05/11 13:40:58;;;;;;;4.10;3.70;;;;;;;;;;5036326;28;20028;-84
2022/05/11 13:43:45;;;;;;;8.90;4.05;;;;;;;;;;5041907;28;20020;-83
2022/05/11 13:46:30;;;;;;;4.70;3.28;;;;;;;;;;5053107;28;20380;-81
2022/05/11 13:49:32;;;;;;;6.60;3.20;;;;;;;;;;5053412;28;20024;-82
2022/05/11 13:52:32;;;;;;;3.67;3.08;;;;;;;;;;5039649;28;20463;-80
2022/05/11 13:55:00;;;;;;;;;;;;;;;;;;5016370;28;20052;-80
2022/05/11 13:57:33;;;;;;;9.73;6.00;;;;;;;;;;5052945;28;20352;-82
2022/05/11 14:00:26;;;;;;;8.27;4.30;;;;;;;;;;5037172;28;20377;-82
2022/05/11 14:02:58;;;;;;;5.60;3.72;;;;;;;;;;5051507;28;20041;-85
2022/05/11 14:05:26;;;;;;;4.35;3.10;;;;;;;;;;5050649;28;20033;-80
2022/05/11 14:07:59;;;;;;;5.88;3.55;;;;;;;;;;5053054;28;20029;-81
2022/05/11 14:10:25;;;;;;;6.28;3.65;;;;;;;;;;5055032;28;20070;-83
2022/05/11 14:12:52;;;;;;;3.55;3.10;;;;;;;;;;5056926;28;20017;-81
2022/05/11 14:15:18;;;;;;;4.72;3.05;;;;;;;;;;5056333;28;20053;-83
2022/05/11 14:17:52;;;;;;;5.63;2.92;;;;;;;;;;5060080;28;20300;-81
2022/05/11 14:20:22;;;;;;;5.10;2.92;;;;;;;;;;5059533;28;20028;-85
2022/05/11 14:22:49;;;;;;;3.67;2.90;;;;;;;;;;5041392;28;20424;-83
2022/05/11 14:25:16;;;;;;;6.05;2.97;;;;;;;;;;5058025;28;20052;-81
2022/05/11 14:27:46;;;;;;;3.30;2.47;;;;;;;;;;5043412;28;20033;-82
2022/05/11 14:30:30;;;;;;;4.35;2.70;;;;;;;;;;5060370;28;20017;-82
2022/05/11 14:32:59;;;;;;;7.15;3.35;;;;;;;;;;5058084;28;20040;-84
2022/05/11 14:35:29;;;;;;;3.88;3.40;;;;;;;;;;5041553;28;20124;-84
2022/05/11 14:37:55;;;;;;;3.40;3.10;;;;;;;;;;5058393;28;20029;-81
2022/05/11 14:40:25;;;;;;;6.15;3.33;;;;;;;;;;5058985;28;20429;-84
2022/05/11 14:42:59;;;;;;;3.92;3.00;;;;;;;;;;5042253;28;20025;-84
2022/05/11 14:45:36;;;;;;;7.60;3.38;;;;;;;;;;5058587;28;20036;-84
2022/05/11 14:48:05;;;;;;;3.60;3.25;;;;;;;;;;5060353;28;20029;-84
2022/05/11 14:50:32;;;;;;;6.05;2.85;;;;;;;;;;5060932;28;20029;-84
2022/05/11 14:53:04;;;;;;;4.65;3.05;;;;;;;;;;5049491;28;20484;-79
2022/05/11 14:55:35;;;;;;;4.88;3.55;;;;;;;;;;5057575;28;20044;-79
2022/05/11 15:04:23;;;;;;;5.15;2.90;;;;;;;;;;5059083;28;20039;-84
2022/05/11 15:06:52;;;;;;;4.28;3.22;;;;;;;;;;5062154;28;20077;-84
2022/05/11 15:09:18;;;;;;;6.63;3.40;;;;;;;;;;5060815;28;20021;-84
2022/05/11 15:14:30;;;;;;;6.85;3.17;;;;;;;;;;5057680;28;20393;-79
2022/05/11 15:17:02;;;;;;;4.05;3.65;;;;;;;;;;5059516;28;20021;-83
2022/05/11 15:19:28;;;;;;;4.57;4.18;;;;;;;;;;5050577;28;20081;-83
2022/05/11 15:21:54;;;;;;;5.72;4.05;;;;;;;;;;5058843;28;20024;-83
2022/05/11 15:24:23;;;;;;;9.77;4.45;;;;;;;;;;5045890;28;20032;-82
2022/05/11 15:26:51;;;;;;;8.63;4.10;;;;;;;;;;5038998;28;20025;-85
2022/05/11 15:29:19;;;;;;;7.40;3.83;;;;;;;;;;5057225;28;20035;-82
2022/05/11 15:31:46;;;;;;;6.18;3.60;;;;;;;;;;5059382;28;20074;-85
2022/05/11 15:34:18;;;;;;;5.07;4.07;;;;;;;;;;5048057;28;20021;-84
2022/05/11 15:36:43;;;;;;;31.42;4.60;;;;;;;;;;5055706;28;20051;-84
2022/05/11 15:39:10;;;;;;;6.90;4.13;;;;;;;;;;5058936;28;20032;-83
2022/05/11 15:41:36;;;;;;;4.65;3.47;;;;;;;;;;5060682;28;20074;-80
2022/05/11 15:44:09;;;;;;;3.78;3.47;;;;;;;;;;5056991;28;20123;-83
2022/05/11 15:46:38;;;;;;;5.07;3.80;;;;;;;;;;5041522;28;20017;-84
2022/05/11 15:49:04;;;;;;;4.68;3.60;;;;;;;;;;5058041;28;20024;-83
2022/05/11 15:51:34;;;;;;;7.20;4.07;;;;;;;;;;5041675;28;20437;-82
2022/05/11 15:54:01;;;;;;;4.22;3.45;;;;;;;;;;5037371;28;20536;-82
2022/05/11 15:56:27;;;;;;;4.78;4.00;;;;;;;;;;5034582;28;20523;-81
2022/05/11 15:58:54;;;;;;;5.20;2.90;;;;;;;;;;5048355;28;20104;-81
2022/05/11 16:01:24;;;;;;;8.85;4.30;;;;;;;;;;5053622;28;20033;-82
2022/05/11 16:03:50;;;;;;;4.00;3.60;;;;;;;;;;5053650;28;20032;-82
2022/05/11 16:06:16;;;;;;;3.75;3.30;;;;;;;;;;5053438;28;20179;-80
2022/05/11 16:08:42;;;;;;;9.60;4.35;;;;;;;;;;5035966;28;20461;-82
2022/05/11 16:11:22;;;;;;;7.22;3.60;;;;;;;;;;5054261;28;20033;-83
2022/05/11 16:13:48;;;;;;;4.28;3.53;;;;;;;;;;5054818;28;20029;-81